createdAt,value
2023-04-07T00:02:17.629Z,8.30
2023-04-07T00:04:46.210Z,9.40
2023-04-07T00:07:14.400Z,11.30
2023-04-07T00:09:43.720Z,8.10
2023-04-07T00:12:13.685Z,8.20
2023-04-07T00:14:41.952Z,8.00
2023-04-07T00:17:11.251Z,7.50
2023-04-07T00:19:42.490Z,6.20
2023-04-07T00:22:10.687Z,5.70
2023-04-07T00:24:42.965Z,6.00
2023-04-07T00:27:11.825Z,5.70
2023-04-07T00:29:39.954Z,5.70
2023-04-07T00:32:09.080Z,5.10
2023-04-07T00:34:37.208Z,6.40
2023-04-07T00:37:08.654Z,5.50
2023-04-07T00:39:37.180Z,4.80
2023-04-07T00:42:08.266Z,4.70
2023-04-07T00:44:36.528Z,4.10
2023-04-07T00:47:05.324Z,4.90
2023-04-07T00:49:33.807Z,4.60
2023-04-07T00:52:01.835Z,5.10
2023-04-07T00:54:30.442Z,4.50
2023-04-07T00:56:58.987Z,3.20
2023-04-07T00:59:27.315Z,4.10
2023-04-07T01:02:13.313Z,4.30
2023-04-07T01:07:23.786Z,3.90
2023-04-07T01:10:04.016Z,3.00
2023-04-07T01:15:23.238Z,4.30
2023-04-07T01:18:01.543Z,6.00
2023-04-07T01:20:30.492Z,4.80
2023-04-07T01:23:04.356Z,5.50
2023-04-07T01:25:53.414Z,4.10
2023-04-07T01:28:42.265Z,5.50
2023-04-07T01:31:10.877Z,5.00
2023-04-07T01:33:39.150Z,6.30
2023-04-07T01:36:08.533Z,7.80
2023-04-07T01:38:37.659Z,5.00
2023-04-07T01:41:06.067Z,5.20
2023-04-07T01:43:34.974Z,5.00
2023-04-07T01:46:03.314Z,4.80
2023-04-07T01:48:32.384Z,4.00
2023-04-07T01:51:00.845Z,4.50
2023-04-07T01:53:29.435Z,4.20
2023-04-07T01:55:57.881Z,5.50
2023-04-07T01:58:26.908Z,4.40
2023-04-07T02:00:55.418Z,5.60
2023-04-07T02:03:32.090Z,4.80
2023-04-07T02:06:03.139Z,4.20
2023-04-07T02:08:32.260Z,4.30
2023-04-07T02:11:01.211Z,4.40
2023-04-07T02:13:32.191Z,4.80
2023-04-07T02:16:01.684Z,4.90
2023-04-07T02:18:33.982Z,3.70
2023-04-07T02:21:02.409Z,4.10
2023-04-07T02:23:30.664Z,6.80
2023-04-07T02:25:59.038Z,5.30
2023-04-07T02:28:27.214Z,3.90
2023-04-07T02:30:55.629Z,3.90
2023-04-07T02:33:25.582Z,7.70
2023-04-07T02:35:53.814Z,3.80
2023-04-07T02:38:23.337Z,3.70
2023-04-07T02:40:51.547Z,3.60
2023-04-07T02:43:21.026Z,4.30
2023-04-07T02:45:49.119Z,4.50
2023-04-07T02:48:18.139Z,3.90
2023-04-07T02:50:46.301Z,4.20
2023-04-07T02:53:19.704Z,4.30
2023-04-07T02:55:47.662Z,4.30
2023-04-07T02:58:15.696Z,5.30
2023-04-07T03:00:45.478Z,3.60
2023-04-07T03:03:23.802Z,4.40
2023-04-07T03:06:00.144Z,4.20
2023-04-07T03:08:28.421Z,5.30
2023-04-07T03:10:58.621Z,4.10
2023-04-07T03:13:30.981Z,4.30
2023-04-07T03:16:06.901Z,5.20
2023-04-07T03:18:45.617Z,4.60
2023-04-07T03:21:14.152Z,4.70
2023-04-07T03:23:42.867Z,4.90
2023-04-07T03:26:11.348Z,4.60
2023-04-07T03:28:39.909Z,4.40
2023-04-07T03:31:09.315Z,4.20
2023-04-07T03:33:37.657Z,4.00
2023-04-07T03:36:06.342Z,4.00
2023-04-07T03:38:36.165Z,4.50
2023-04-07T03:41:05.521Z,5.00
2023-04-07T03:43:36.249Z,4.50
2023-04-07T03:46:04.862Z,3.70
2023-04-07T03:48:34.068Z,5.00
2023-04-07T03:51:06.406Z,4.30
2023-04-07T03:53:35.853Z,3.20
2023-04-07T03:56:14.534Z,4.90
2023-04-07T03:58:50.984Z,3.60
2023-04-07T04:01:31.981Z,6.00
2023-04-07T04:04:06.212Z,4.90
2023-04-07T04:06:37.145Z,5.60
2023-04-07T04:09:22.752Z,4.30
2023-04-07T04:11:51.225Z,6.60
2023-04-07T04:14:22.095Z,6.60
2023-04-07T04:16:55.499Z,8.60
2023-04-07T04:19:33.282Z,7.90
2023-04-07T04:22:04.277Z,8.40
2023-04-07T04:24:36.142Z,7.10
2023-04-07T04:27:05.458Z,6.60
2023-04-07T04:29:33.877Z,6.30
2023-04-07T04:32:02.959Z,6.30
2023-04-07T04:34:36.714Z,6.50
2023-04-07T04:37:06.610Z,4.60
2023-04-07T04:39:34.900Z,6.30
2023-04-07T04:42:05.844Z,5.20
2023-04-07T04:44:36.892Z,6.90
2023-04-07T04:47:14.713Z,6.60
2023-04-07T04:49:42.889Z,7.90
2023-04-07T04:52:11.209Z,7.60
2023-04-07T04:54:43.253Z,6.10
2023-04-07T04:57:12.323Z,6.10
2023-04-07T04:59:42.631Z,6.70
2023-04-07T05:02:12.608Z,5.90
2023-04-07T05:04:41.712Z,5.10
2023-04-07T05:07:20.592Z,5.80
2023-04-07T05:09:50.695Z,6.30
2023-04-07T05:12:19.137Z,7.70
2023-04-07T05:14:50.777Z,6.00
2023-04-07T05:17:21.201Z,5.50
2023-04-07T05:19:49.570Z,5.90
2023-04-07T05:22:28.749Z,5.80
2023-04-07T05:24:57.669Z,5.10
2023-04-07T05:27:26.061Z,4.70
2023-04-07T05:29:55.756Z,5.60
2023-04-07T05:32:28.415Z,6.30
2023-04-07T05:34:57.572Z,5.70
2023-04-07T05:37:32.199Z,5.50
2023-04-07T05:40:02.463Z,4.50
2023-04-07T05:42:31.405Z,6.10
2023-04-07T05:45:00.037Z,5.40
2023-04-07T05:47:28.818Z,5.40
2023-04-07T05:49:57.917Z,6.10
2023-04-07T05:52:26.984Z,5.50
2023-04-07T05:55:06.463Z,5.90
2023-04-07T05:57:36.630Z,5.50
2023-04-07T06:00:05.714Z,6.00
2023-04-07T06:02:46.456Z,5.50
2023-04-07T06:05:23.433Z,5.80
2023-04-07T06:07:55.603Z,4.00
2023-04-07T06:10:24.335Z,4.60
2023-04-07T06:12:52.721Z,4.70
2023-04-07T06:15:21.009Z,4.70
2023-04-07T06:17:51.003Z,5.20
2023-04-07T06:20:21.944Z,5.80
2023-04-07T06:22:55.084Z,6.10
2023-04-07T06:25:23.999Z,6.40
2023-04-07T06:27:54.341Z,5.30
2023-04-07T06:30:25.054Z,4.50
2023-04-07T06:32:54.107Z,5.30
2023-04-07T06:35:22.368Z,5.60
2023-04-07T06:37:54.581Z,5.00
2023-04-07T06:40:23.772Z,5.50
2023-04-07T06:42:52.385Z,5.90
2023-04-07T06:45:42.965Z,6.00
2023-04-07T06:48:11.193Z,5.60
2023-04-07T06:50:40.953Z,5.40
2023-04-07T06:53:09.295Z,5.10
2023-04-07T06:55:37.546Z,5.90
2023-04-07T06:58:05.979Z,5.70
2023-04-07T07:00:36.083Z,5.70
2023-04-07T07:03:08.826Z,6.40
2023-04-07T07:05:37.531Z,5.40
2023-04-07T07:08:06.057Z,5.10
2023-04-07T07:10:34.242Z,5.20
2023-04-07T07:13:02.505Z,5.50
2023-04-07T07:15:31.169Z,5.50
2023-04-07T07:17:59.407Z,5.60
2023-04-07T07:20:27.857Z,5.30
2023-04-07T07:22:56.817Z,5.20
2023-04-07T07:25:26.969Z,5.10
2023-04-07T07:27:55.147Z,5.30
2023-04-07T07:30:24.725Z,5.50
2023-04-07T07:32:55.101Z,5.20
2023-04-07T07:35:25.453Z,6.30
2023-04-07T07:37:55.393Z,5.20
2023-04-07T07:40:23.786Z,4.80
2023-04-07T07:42:52.823Z,6.00
2023-04-07T07:45:20.957Z,5.50
2023-04-07T07:47:49.085Z,5.60
2023-04-07T07:50:17.715Z,5.10
2023-04-07T07:52:46.322Z,5.10
2023-04-07T07:55:17.033Z,4.60
2023-04-07T07:57:45.924Z,6.20
2023-04-07T08:00:14.199Z,5.00
2023-04-07T08:02:44.872Z,5.10
2023-04-07T08:05:13.250Z,5.40
2023-04-07T08:07:43.248Z,5.00
2023-04-07T08:10:11.404Z,5.30
2023-04-07T08:12:48.070Z,5.10
2023-04-07T08:15:16.851Z,5.20
2023-04-07T08:17:45.346Z,5.30
2023-04-07T08:20:13.532Z,5.80
2023-04-07T08:22:43.906Z,5.40
2023-04-07T08:25:11.976Z,5.20
2023-04-07T08:27:42.519Z,5.30
2023-04-07T08:30:13.288Z,5.70
2023-04-07T08:32:46.645Z,5.80
2023-04-07T08:35:14.686Z,5.10
2023-04-07T08:37:44.378Z,6.00
2023-04-07T08:40:13.034Z,6.00
2023-04-07T08:42:43.225Z,5.30
2023-04-07T08:45:11.452Z,5.20
2023-04-07T08:47:40.527Z,5.70
2023-04-07T08:50:10.261Z,4.70
2023-04-07T08:52:46.251Z,6.20
2023-04-07T08:55:14.394Z,5.50
2023-04-07T08:57:44.141Z,5.50
2023-04-07T09:00:13.157Z,6.30
2023-04-07T09:02:47.975Z,5.80
2023-04-07T09:05:16.362Z,5.80
2023-04-07T09:07:44.983Z,5.90
2023-04-07T09:10:13.764Z,6.80
2023-04-07T09:12:43.048Z,6.70
2023-04-07T09:15:11.205Z,7.10
2023-04-07T09:17:45.364Z,6.10
2023-04-07T09:20:14.295Z,5.80
2023-04-07T09:22:43.790Z,5.80
2023-04-07T09:25:17.789Z,5.80
2023-04-07T09:27:59.436Z,5.80
2023-04-07T09:30:29.171Z,5.60
2023-04-07T09:32:58.769Z,5.50
2023-04-07T09:35:28.606Z,5.30
2023-04-07T09:38:09.908Z,5.00
2023-04-07T09:40:38.619Z,5.60
2023-04-07T09:43:07.786Z,5.70
2023-04-07T09:45:37.514Z,5.30
2023-04-07T09:48:08.920Z,6.00
2023-04-07T09:50:42.233Z,6.00
2023-04-07T09:53:11.142Z,6.20
2023-04-07T09:55:40.016Z,5.60
2023-04-07T09:58:08.635Z,5.50
2023-04-07T10:00:37.432Z,5.60
2023-04-07T10:03:06.104Z,5.30
2023-04-07T10:05:36.759Z,5.70
2023-04-07T10:08:06.880Z,5.40
2023-04-07T10:10:36.554Z,5.10
2023-04-07T10:13:31.631Z,5.80
2023-04-07T10:16:03.025Z,4.80
2023-04-07T10:18:32.954Z,5.80
2023-04-07T10:21:03.435Z,5.30
2023-04-07T10:23:50.639Z,5.70
2023-04-07T10:26:20.083Z,5.20
2023-04-07T10:28:50.159Z,5.10
2023-04-07T10:31:20.535Z,5.80
2023-04-07T10:33:54.067Z,5.00
2023-04-07T10:36:22.409Z,5.50
2023-04-07T10:39:08.578Z,5.40
2023-04-07T10:41:38.207Z,5.50
2023-04-07T10:44:07.025Z,5.40
2023-04-07T10:46:52.005Z,4.70
2023-04-07T11:01:27.004Z,4.50
2023-04-07T11:03:55.596Z,5.30
2023-04-07T11:06:22.432Z,6.00
2023-04-07T11:08:51.909Z,4.30
2023-04-07T11:11:34.809Z,4.40
2023-04-07T11:14:01.861Z,6.30
2023-04-07T11:16:55.826Z,5.20
2023-04-07T11:19:23.229Z,4.50
2023-04-07T11:21:51.073Z,6.80
2023-04-07T11:24:39.516Z,5.90
2023-04-07T11:27:11.863Z,4.80
2023-04-07T11:29:39.332Z,5.50
2023-04-07T11:32:06.812Z,4.50
2023-04-07T11:34:36.623Z,4.90
2023-04-07T11:37:28.235Z,5.50
2023-04-07T11:39:56.022Z,5.80
2023-04-07T11:42:32.702Z,4.50
2023-04-07T11:44:59.990Z,5.20
2023-04-07T11:47:37.568Z,4.30
2023-04-07T11:50:05.212Z,4.40
2023-04-07T11:52:46.523Z,5.70
2023-04-07T11:55:26.506Z,5.20
2023-04-07T11:57:53.284Z,4.50
2023-04-07T12:00:20.534Z,4.80
2023-04-07T12:02:47.860Z,4.30
2023-04-07T12:05:16.646Z,4.80
2023-04-07T12:07:52.422Z,4.70
2023-04-07T12:10:23.159Z,4.80
2023-04-07T12:12:55.240Z,4.40
2023-04-07T12:15:25.361Z,4.40
2023-04-07T12:17:52.796Z,4.00
2023-04-07T12:20:26.787Z,4.70
2023-04-07T12:22:53.719Z,4.60
2023-04-07T12:25:20.564Z,3.40
2023-04-07T12:27:51.773Z,3.60
2023-04-07T12:30:19.287Z,3.60
2023-04-07T12:32:47.067Z,3.50
2023-04-07T12:35:17.568Z,2.40
2023-04-07T12:37:46.162Z,4.70
2023-04-07T12:40:15.327Z,3.20
2023-04-07T12:42:41.998Z,3.40
2023-04-07T12:45:08.898Z,3.40
2023-04-07T12:47:36.551Z,3.80
2023-04-07T12:50:03.677Z,3.80
2023-04-07T12:52:36.273Z,3.40
2023-04-07T12:55:03.235Z,3.50
2023-04-07T12:57:30.591Z,4.30
2023-04-07T12:59:57.380Z,4.20
2023-04-07T13:02:25.198Z,3.80
2023-04-07T13:04:52.405Z,6.00
2023-04-07T13:07:19.316Z,4.90
2023-04-07T13:09:46.019Z,5.30
2023-04-07T13:12:13.334Z,5.00
2023-04-07T13:15:00.767Z,4.10
2023-04-07T13:17:29.228Z,5.80
2023-04-07T13:19:56.020Z,5.20
2023-04-07T13:22:24.611Z,5.50
2023-04-07T13:24:51.715Z,4.80
2023-04-07T13:27:18.501Z,5.20
2023-04-07T13:29:45.257Z,6.30
2023-04-07T13:32:14.797Z,5.50
2023-04-07T13:34:41.712Z,4.60
2023-04-07T13:37:08.410Z,5.60
2023-04-07T13:39:36.473Z,5.10
2023-04-07T13:42:04.090Z,5.20
2023-04-07T13:44:33.215Z,4.40
2023-04-07T13:47:00.324Z,4.80
2023-04-07T13:49:28.513Z,6.40
2023-04-07T13:51:55.363Z,5.20
2023-04-07T13:54:22.231Z,5.10
2023-04-07T13:56:50.117Z,4.70
2023-04-07T13:59:16.887Z,5.00
2023-04-07T14:01:43.891Z,4.80
2023-04-07T14:04:11.725Z,6.10
2023-04-07T14:06:38.577Z,5.00
2023-04-07T14:09:06.059Z,5.10
2023-04-07T14:11:34.761Z,4.80
2023-04-07T14:14:12.322Z,5.00
2023-04-07T14:16:40.158Z,5.30
2023-04-07T14:19:07.054Z,5.80
2023-04-07T14:21:36.863Z,4.50
2023-04-07T14:24:03.984Z,4.90
2023-04-07T14:26:30.669Z,7.60
2023-04-07T14:28:57.623Z,5.30
2023-04-07T14:31:24.297Z,7.70
2023-04-07T14:33:51.336Z,5.30
2023-04-07T14:36:18.489Z,5.40
2023-04-07T14:38:45.406Z,4.40
2023-04-07T14:41:12.523Z,4.70
2023-04-07T14:43:39.255Z,5.60
2023-04-07T14:46:06.543Z,4.90
2023-04-07T14:48:34.885Z,4.20
2023-04-07T14:51:09.287Z,4.80
2023-04-07T14:53:37.275Z,8.70
2023-04-07T14:56:07.160Z,4.30
2023-04-07T14:58:39.961Z,4.70
2023-04-07T15:01:06.944Z,4.90
2023-04-07T15:03:35.175Z,4.40
2023-04-07T15:06:06.093Z,3.90
2023-04-07T15:08:32.786Z,4.00
2023-04-07T15:10:59.737Z,4.60
2023-04-07T15:13:27.089Z,4.90
2023-04-07T15:15:53.798Z,4.40
2023-04-07T15:18:21.184Z,4.30
2023-04-07T15:20:48.765Z,4.60
2023-04-07T15:23:18.758Z,5.80
2023-04-07T15:25:46.958Z,4.50
2023-04-07T15:28:14.090Z,5.20
2023-04-07T15:30:42.356Z,5.20
2023-04-07T15:33:09.408Z,4.60
2023-04-07T15:35:36.250Z,4.70
2023-04-07T15:38:03.122Z,5.20
2023-04-07T15:40:29.743Z,4.50
2023-04-07T15:42:56.500Z,4.60
2023-04-07T15:45:23.261Z,5.40
2023-04-07T15:47:52.128Z,4.80
2023-04-07T15:50:19.328Z,5.20
2023-04-07T15:52:46.300Z,5.20
2023-04-07T15:55:13.080Z,6.00
2023-04-07T15:57:40.390Z,5.20
2023-04-07T16:00:07.893Z,5.80
2023-04-07T16:02:37.584Z,5.30
2023-04-07T16:05:04.940Z,5.80
2023-04-07T16:07:31.699Z,6.90
2023-04-07T16:09:58.434Z,5.20
2023-04-07T16:12:25.293Z,4.90
2023-04-07T16:14:51.968Z,5.10
2023-04-07T16:17:20.576Z,5.10
2023-04-07T16:19:48.498Z,7.00
2023-04-07T16:22:15.127Z,5.00
2023-04-07T16:24:42.420Z,5.00
2023-04-07T16:27:09.251Z,4.70
2023-04-07T16:29:36.273Z,5.20
2023-04-07T16:32:03.909Z,5.00
2023-04-07T16:34:30.812Z,5.20
2023-04-07T16:37:01.135Z,6.00
2023-04-07T16:39:29.555Z,4.20
2023-04-07T16:41:56.632Z,4.90
2023-04-07T16:44:28.788Z,4.90
2023-04-07T16:46:55.550Z,4.60
2023-04-07T16:49:23.298Z,5.40
2023-04-07T16:51:50.216Z,4.10
2023-04-07T16:54:16.931Z,5.00
2023-04-07T16:56:43.682Z,6.10
2023-04-07T16:59:10.776Z,5.70
2023-04-07T17:01:42.445Z,5.60
2023-04-07T17:04:10.261Z,4.80
2023-04-07T17:06:37.048Z,5.50
2023-04-07T17:09:03.682Z,6.00
2023-04-07T17:11:30.367Z,5.40
2023-04-07T17:13:57.784Z,6.70
2023-04-07T17:16:25.025Z,4.80
2023-04-07T17:18:52.020Z,5.30
2023-04-07T17:21:18.782Z,5.00
2023-04-07T17:23:48.933Z,5.70
2023-04-07T17:26:16.088Z,7.30
2023-04-07T17:28:45.044Z,5.60
2023-04-07T17:31:13.909Z,6.20
2023-04-07T17:33:41.540Z,5.20
2023-04-07T17:36:08.340Z,6.60
2023-04-07T17:38:35.791Z,9.00
2023-04-07T17:41:02.671Z,8.20
2023-04-07T17:43:33.274Z,8.50
2023-04-07T17:45:59.991Z,10.00
2023-04-07T17:48:27.079Z,6.70
2023-04-07T17:50:53.696Z,10.30
2023-04-07T17:53:20.643Z,10.00
2023-04-07T17:55:51.464Z,14.30
2023-04-07T17:58:22.546Z,10.40
2023-04-07T18:00:50.133Z,12.40
2023-04-07T18:03:18.812Z,10.90
2023-04-07T18:05:46.301Z,10.40
2023-04-07T18:08:12.943Z,13.20
2023-04-07T18:10:39.812Z,9.10
2023-04-07T18:13:07.282Z,12.90
2023-04-07T18:15:34.405Z,10.20
2023-04-07T18:18:01.882Z,11.10
2023-04-07T18:20:30.964Z,11.20
2023-04-07T18:22:57.964Z,12.40
2023-04-07T18:25:25.124Z,13.00
2023-04-07T18:27:52.753Z,12.50
2023-04-07T18:30:19.669Z,13.20
2023-04-07T18:32:46.749Z,14.90
2023-04-07T18:35:13.552Z,13.00
2023-04-07T18:37:43.656Z,17.10
2023-04-07T18:40:11.802Z,17.70
2023-04-07T18:42:40.162Z,15.00
2023-04-07T18:45:08.210Z,16.20
2023-04-07T18:47:35.065Z,18.00
2023-04-07T18:50:02.784Z,18.90
2023-04-07T18:52:29.756Z,19.50
2023-04-07T18:54:57.559Z,17.80
2023-04-07T18:57:24.294Z,15.90
2023-04-07T18:59:52.288Z,22.50
2023-04-07T19:02:19.155Z,17.00
2023-04-07T19:04:46.129Z,16.30
2023-04-07T19:07:13.104Z,17.30
2023-04-07T19:09:41.836Z,15.20
2023-04-07T19:12:08.922Z,15.40
2023-04-07T19:14:35.730Z,9.80
2023-04-07T19:17:04.092Z,9.00
2023-04-07T19:19:31.699Z,10.70
2023-04-07T19:22:01.958Z,8.70
2023-04-07T19:24:29.033Z,9.50
2023-04-07T19:26:56.299Z,10.10
2023-04-07T19:29:23.149Z,8.60
2023-04-07T19:31:52.296Z,9.40
2023-04-07T19:34:19.409Z,10.70
2023-04-07T19:36:46.182Z,11.50
2023-04-07T19:39:13.098Z,13.10
2023-04-07T19:41:41.339Z,12.10
2023-04-07T19:44:08.100Z,9.70
2023-04-07T19:46:35.980Z,11.20
2023-04-07T19:49:03.642Z,11.00
2023-04-07T19:51:31.179Z,9.40
2023-04-07T19:53:57.945Z,8.50
2023-04-07T19:56:24.715Z,9.80
2023-04-07T19:58:51.628Z,9.10
2023-04-07T20:01:18.568Z,9.20
2023-04-07T20:03:46.121Z,9.00
2023-04-07T20:06:14.323Z,10.10
2023-04-07T20:08:42.990Z,7.80
2023-04-07T20:11:12.097Z,8.60
2023-04-07T20:13:42.535Z,9.40
2023-04-07T20:16:09.555Z,8.10
2023-04-07T20:18:36.714Z,9.60
2023-04-07T20:21:09.196Z,8.20
2023-04-07T20:23:35.984Z,8.00
2023-04-07T20:26:02.983Z,8.90
2023-04-07T20:28:30.458Z,10.40
2023-04-07T20:30:57.420Z,8.00
2023-04-07T20:33:24.334Z,9.80
2023-04-07T20:35:51.932Z,8.90
2023-04-07T20:38:19.562Z,9.50
2023-04-07T20:40:46.660Z,8.90
2023-04-07T20:43:14.565Z,8.40
2023-04-07T20:45:41.778Z,8.80
2023-04-07T20:48:08.748Z,9.60
2023-04-07T20:50:35.980Z,9.60
2023-04-07T20:53:06.401Z,10.70
2023-04-07T20:55:33.987Z,11.80
2023-04-07T20:58:00.762Z,13.80
2023-04-07T21:00:28.628Z,11.50
2023-04-07T21:02:56.755Z,14.40
2023-04-07T21:05:23.775Z,15.00
2023-04-07T21:07:50.508Z,13.80
2023-04-07T21:10:17.470Z,14.90
2023-04-07T21:12:44.234Z,14.90
2023-04-07T21:15:17.284Z,15.30
2023-04-07T21:17:45.480Z,14.20
2023-04-07T21:20:12.331Z,13.30
2023-04-07T21:22:42.308Z,13.50
2023-04-07T21:25:09.268Z,12.70
2023-04-07T21:27:37.620Z,13.80
2023-04-07T21:30:05.934Z,12.80
2023-04-07T21:32:33.284Z,14.60
2023-04-07T21:35:00.247Z,13.80
2023-04-07T21:37:27.244Z,13.20
2023-04-07T21:39:54.105Z,14.00
2023-04-07T21:42:21.900Z,12.90
2023-04-07T21:44:48.734Z,11.40
2023-04-07T21:47:16.990Z,12.80
2023-04-07T21:49:43.683Z,13.50
2023-04-07T21:52:10.786Z,13.80
2023-04-07T21:54:38.916Z,12.60
2023-04-07T21:57:07.884Z,13.80
2023-04-07T21:59:36.550Z,13.80
2023-04-07T22:02:03.951Z,12.90
2023-04-07T22:04:31.379Z,13.10
2023-04-07T22:06:58.577Z,11.50
2023-04-07T22:09:26.554Z,13.60
2023-04-07T22:11:59.995Z,12.30
2023-04-07T22:14:26.767Z,14.10
2023-04-07T22:16:53.526Z,12.50
2023-04-07T22:19:27.746Z,14.90
2023-04-07T22:21:54.903Z,12.60
2023-04-07T22:24:21.814Z,14.50
2023-04-07T22:26:53.369Z,10.40
2023-04-07T22:29:20.812Z,11.30
2023-04-07T22:31:47.984Z,9.50
2023-04-07T22:34:15.780Z,10.70
2023-04-07T22:36:42.547Z,13.20
2023-04-07T22:39:09.499Z,10.00
2023-04-07T22:41:36.854Z,10.00
2023-04-07T22:44:07.939Z,10.70
2023-04-07T22:46:35.280Z,9.70
2023-04-07T22:49:02.288Z,10.70
2023-04-07T22:51:29.517Z,11.70
2023-04-07T22:53:56.587Z,9.10
2023-04-07T22:56:27.635Z,10.30
2023-04-07T22:58:54.624Z,10.70
2023-04-07T23:01:21.558Z,9.80
2023-04-07T23:03:48.872Z,9.10
2023-04-07T23:08:48.830Z,11.80
2023-04-07T23:11:17.112Z,11.60
2023-04-07T23:13:45.758Z,11.90
2023-04-07T23:16:14.961Z,12.60
2023-04-07T23:18:43.829Z,15.30
2023-04-07T23:21:12.087Z,14.40
2023-04-07T23:23:40.689Z,16.50
2023-04-07T23:26:08.644Z,16.00
2023-04-07T23:28:36.827Z,15.90
2023-04-07T23:31:06.702Z,17.90
2023-04-07T23:33:35.246Z,20.20
2023-04-07T23:36:28.999Z,20.60
2023-04-07T23:38:57.123Z,17.60
2023-04-07T23:41:25.603Z,19.00
2023-04-07T23:43:53.740Z,19.80
2023-04-07T23:46:21.926Z,17.60
2023-04-07T23:48:51.073Z,19.40
2023-04-07T23:51:19.771Z,19.20
2023-04-07T23:53:47.796Z,18.00
2023-04-07T23:56:16.275Z,21.30
2023-04-07T23:58:44.380Z,19.70
